Time;durP1;ratioP1;P1;durP2;ratioP2;P2;SDS_P1;SDS_P2;PMS_P1;PMS_P2;Temp;Humidity;BMP_temperature;BMP_pressure;BME280_temperature;BME280_humidity;BME280_pressure;Samples;Min_cycle;Max_cycle;Signal;HPM_P1;HPM_P2
2023/05/16 00:01:36;;;;;;;4.25;1.38;;;11.30;80.50;;;;;;4845263;29;20053;-90
2023/05/16 00:04:04;;;;;;;4.77;1.40;;;11.40;80.40;;;;;;4845280;29;20054;-90
2023/05/16 00:06:32;;;;;;;3.88;1.20;;;11.40;80.40;;;;;;4844989;29;20054;-90
2023/05/16 00:08:59;;;;;;;3.95;1.40;;;11.40;80.40;;;;;;4844916;29;20046;-91
2023/05/16 00:11:26;;;;;;;5.38;1.55;;;11.40;80.40;;;;;;4845332;29;20046;-91
2023/05/16 00:13:53;;;;;;;4.32;1.48;;;11.30;80.40;;;;;;4829927;29;20052;-91
2023/05/16 00:16:20;;;;;;;4.60;1.90;;;11.30;80.50;;;;;;4845267;29;20068;-90
2023/05/16 00:18:49;;;;;;;4.45;1.50;;;11.40;80.60;;;;;;4830298;29;20080;-90
2023/05/16 00:21:16;;;;;;;4.53;1.45;;;11.30;80.60;;;;;;4845126;29;20145;-90
2023/05/16 00:23:43;;;;;;;3.72;1.40;;;11.20;80.90;;;;;;4845167;29;20397;-91
2023/05/16 00:26:10;;;;;;;5.57;1.60;;;11.20;81.10;;;;;;4847143;29;20064;-91
2023/05/16 00:28:40;;;;;;;3.77;1.40;;;11.20;81.20;;;;;;4848212;29;20543;-91
2023/05/16 00:31:09;;;;;;;5.07;1.63;;;11.10;81.30;;;;;;4848795;29;20050;-91
2023/05/16 00:33:36;;;;;;;4.82;1.63;;;11.20;81.30;;;;;;4848481;29;20102;-90
2023/05/16 00:36:04;;;;;;;6.13;1.92;;;11.10;81.40;;;;;;4847990;29;20050;-90
2023/05/16 00:38:31;;;;;;;5.10;1.70;;;11.10;81.30;;;;;;4833141;29;20064;-90
2023/05/16 00:40:58;;;;;;;5.57;1.80;;;11.20;81.30;;;;;;4848282;29;20077;-90
2023/05/16 00:43:25;;;;;;;5.10;1.98;;;11.10;81.30;;;;;;4848048;29;20449;-90
2023/05/16 00:45:53;;;;;;;4.65;2.10;;;11.10;81.30;;;;;;4848420;29;20118;-90
2023/05/16 00:48:20;;;;;;;4.80;1.80;;;11.20;81.30;;;;;;4847918;29;20050;-89
2023/05/16 00:50:48;;;;;;;4.68;1.75;;;11.30;81.20;;;;;;4849117;29;20408;-90
2023/05/16 00:53:15;;;;;;;4.33;1.57;;;11.20;81.20;;;;;;4832454;29;20088;-90
2023/05/16 00:55:42;;;;;;;5.28;1.70;;;11.30;81.00;;;;;;4832670;29;20056;-90
2023/05/16 00:58:13;;;;;;;4.70;1.98;;;11.30;81.00;;;;;;4847903;29;20060;-91
2023/05/16 01:00:41;;;;;;;5.50;1.75;;;11.30;81.00;;;;;;4848785;29;20080;-91
2023/05/16 01:03:08;;;;;;;6.13;2.08;;;11.40;80.80;;;;;;4832645;29;20440;-92
2023/05/16 01:05:37;;;;;;;5.57;2.00;;;11.40;80.80;;;;;;4832890;29;20053;-92
2023/05/16 01:08:05;;;;;;;10.95;2.05;;;11.40;80.90;;;;;;4847749;29;20078;-93
2023/05/16 01:10:42;;;;;;;6.80;2.22;;;11.50;80.80;;;;;;4847865;29;20046;-93
2023/05/16 01:13:42;;;;;;;5.72;1.88;;;11.50;80.90;;;;;;4832446;29;20056;-91
2023/05/16 01:16:21;;;;;;;5.97;1.80;;;11.50;80.80;;;;;;4795501;29;20141;-91
2023/05/16 01:19:04;;;;;;;5.43;1.83;;;11.50;80.70;;;;;;4833414;29;20045;-92
2023/05/16 01:22:01;;;;;;;6.05;2.08;;;11.50;80.70;;;;;;4847495;29;20152;-91
2023/05/16 01:24:33;;;;;;;6.45;1.90;;;11.50;81.00;;;;;;4832225;29;20050;-90
2023/05/16 01:27:03;;;;;;;5.53;1.77;;;11.40;81.00;;;;;;4847392;29;20049;-90
2023/05/16 01:29:32;;;;;;;5.53;2.10;;;11.40;81.00;;;;;;4847733;29;20156;-91
2023/05/16 01:32:00;;;;;;;5.37;1.90;;;11.40;81.10;;;;;;4847461;29;20161;-91
2023/05/16 01:34:27;;;;;;;5.53;2.00;;;11.40;81.30;;;;;;4847440;29;20049;-91
2023/05/16 01:37:01;;;;;;;6.82;2.40;;;11.40;81.20;;;;;;4847257;29;20404;-91
2023/05/16 01:39:35;;;;;;;6.97;2.15;;;11.40;81.10;;;;;;4847410;29;20490;-91
2023/05/16 01:42:13;;;;;;;5.75;1.90;;;11.40;81.10;;;;;;4847559;29;20045;-91
2023/05/16 01:44:48;;;;;;;7.27;2.63;;;11.40;81.00;;;;;;4847737;29;20144;-92
2023/05/16 01:47:18;;;;;;;10.23;3.20;;;11.40;81.10;;;;;;4847705;29;20138;-91
2023/05/16 01:49:59;;;;;;;6.50;2.42;;;11.40;81.10;;;;;;4832377;29;20046;-93
2023/05/16 01:52:37;;;;;;;5.90;2.38;;;11.40;81.00;;;;;;4846895;29;20050;-92
2023/05/16 01:55:09;;;;;;;7.20;2.60;;;11.40;80.90;;;;;;4846942;29;20105;-92
2023/05/16 01:57:39;;;;;;;6.50;3.33;;;11.40;80.70;;;;;;4831714;29;20045;-92
2023/05/16 02:00:07;;;;;;;7.13;2.25;;;11.40;80.60;;;;;;4831619;29;20088;-92
2023/05/16 02:02:51;;;;;;;5.80;2.10;;;11.30;80.60;;;;;;4847531;29;20053;-92
2023/05/16 02:05:19;;;;;;;6.65;2.28;;;11.30;80.60;;;;;;4847142;29;20061;-92
2023/05/16 02:07:46;;;;;;;5.65;2.47;;;11.20;80.70;;;;;;4843879;29;20068;-91
2023/05/16 02:10:14;;;;;;;5.77;2.30;;;11.20;81.00;;;;;;4844523;29;20401;-93
2023/05/16 02:13:06;;;;;;;6.10;2.38;;;11.20;80.90;;;;;;4828641;29;20046;-91
2023/05/16 02:15:36;;;;;;;6.70;2.55;;;11.20;80.90;;;;;;4843791;29;20061;-91
2023/05/16 02:18:04;;;;;;;6.15;2.30;;;11.20;80.80;;;;;;4843683;29;20058;-91
2023/05/16 02:20:34;;;;;;;5.95;2.30;;;11.20;80.60;;;;;;4843989;29;20074;-91
2023/05/16 02:23:04;;;;;;;6.73;2.70;;;11.30;80.70;;;;;;4828203;29;20102;-91
2023/05/16 02:25:31;;;;;;;9.10;2.70;;;11.20;80.80;;;;;;4828336;29;20145;-91
2023/05/16 02:27:58;;;;;;;8.75;2.58;;;11.20;80.90;;;;;;4841449;29;20046;-91
2023/05/16 02:30:26;;;;;;;7.50;2.88;;;11.10;81.30;;;;;;4825167;29;20046;-91
2023/05/16 02:32:53;;;;;;;7.53;2.90;;;11.10;81.40;;;;;;4825414;29;20099;-91
2023/05/16 02:35:31;;;;;;;10.33;3.67;;;11.10;81.50;;;;;;4811180;29;20483;-91
2023/05/16 02:37:59;;;;;;;8.85;3.72;;;11.10;81.70;;;;;;4825073;29;20047;-91
2023/05/16 02:40:26;;;;;;;7.30;3.10;;;11.10;81.60;;;;;;4825084;29;20053;-92
2023/05/16 02:42:53;;;;;;;8.15;2.80;;;11.10;81.70;;;;;;4809688;29;20103;-91
2023/05/16 02:45:20;;;;;;;7.82;2.90;;;11.10;81.60;;;;;;4825351;29;20477;-91
2023/05/16 02:47:47;;;;;;;6.23;2.37;;;11.10;81.50;;;;;;4824363;29;20053;-91
2023/05/16 02:50:14;;;;;;;7.78;2.70;;;11.10;81.60;;;;;;4825018;29;20047;-91
2023/05/16 02:52:41;;;;;;;8.55;4.10;;;11.00;81.70;;;;;;4824981;29;20526;-91
2023/05/16 02:55:09;;;;;;;9.27;4.25;;;11.00;81.70;;;;;;4838031;29;20071;-91
2023/05/16 02:57:49;;;;;;;9.82;4.22;;;11.10;81.80;;;;;;4842666;29;20060;-91
2023/05/16 03:00:17;;;;;;;8.63;3.50;;;11.10;81.70;;;;;;4843360;29;20050;-91
2023/05/16 03:02:45;;;;;;;8.02;2.97;;;11.10;81.50;;;;;;4836318;29;20050;-90
2023/05/16 03:05:12;;;;;;;9.27;3.17;;;11.20;81.40;;;;;;4813963;29;20137;-90
2023/05/16 03:07:40;;;;;;;7.15;3.17;;;11.20;81.20;;;;;;4830854;29;20082;-90
2023/05/16 03:10:08;;;;;;;7.75;3.33;;;11.10;81.40;;;;;;4816824;29;20540;-90
2023/05/16 03:12:35;;;;;;;9.00;3.67;;;11.10;81.40;;;;;;4832418;29;20125;-90
2023/05/16 03:15:03;;;;;;;8.15;3.38;;;11.10;81.50;;;;;;4824678;29;20111;-90
2023/05/16 03:17:30;;;;;;;10.45;4.68;;;11.10;81.40;;;;;;4839260;29;20053;-89
2023/05/16 03:19:58;;;;;;;8.13;3.35;;;11.20;81.30;;;;;;4842832;29;20450;-88
2023/05/16 03:22:26;;;;;;;8.00;3.10;;;11.20;81.20;;;;;;4815477;29;20520;-89
2023/05/16 03:24:53;;;;;;;8.10;3.40;;;11.30;80.90;;;;;;4830595;29;20505;-89
2023/05/16 03:27:21;;;;;;;8.75;3.78;;;11.20;81.00;;;;;;4826194;29;20050;-89
2023/05/16 03:29:49;;;;;;;8.27;3.10;;;11.30;80.90;;;;;;4831417;29;20525;-89
2023/05/16 03:32:16;;;;;;;6.63;2.70;;;11.20;80.70;;;;;;4826768;29;20047;-89
2023/05/16 03:34:43;;;;;;;5.80;2.58;;;11.30;80.70;;;;;;4834616;29;20054;-89
2023/05/16 03:37:10;;;;;;;6.77;2.70;;;11.20;80.70;;;;;;4837019;29;20054;-89
2023/05/16 03:39:37;;;;;;;6.10;2.60;;;11.30;80.50;;;;;;4831988;29;20058;-89
2023/05/16 03:42:04;;;;;;;6.22;2.63;;;11.40;80.40;;;;;;4838209;29;20421;-90
2023/05/16 03:44:31;;;;;;;6.40;2.50;;;11.30;80.50;;;;;;4835915;29;20106;-90
2023/05/16 03:46:59;;;;;;;7.75;3.05;;;11.30;80.80;;;;;;4823919;29;20076;-89
2023/05/16 03:49:29;;;;;;;6.83;2.80;;;11.20;80.80;;;;;;4817046;29;20053;-90
2023/05/16 03:51:56;;;;;;;6.57;2.78;;;11.20;80.80;;;;;;4817237;29;20070;-89
2023/05/16 03:54:23;;;;;;;6.90;3.00;;;11.20;81.00;;;;;;4833121;29;20494;-90
2023/05/16 03:56:50;;;;;;;8.00;2.63;;;11.20;81.00;;;;;;4827871;29;20050;-89
2023/05/16 03:59:17;;;;;;;6.88;2.95;;;11.20;80.90;;;;;;4829514;29;20057;-90
2023/05/16 04:01:44;;;;;;;7.57;3.10;;;11.20;80.90;;;;;;4833649;29;20505;-90
2023/05/16 04:04:13;;;;;;;9.35;3.67;;;11.20;81.00;;;;;;4826259;29;20047;-90
2023/05/16 04:06:40;;;;;;;7.30;3.30;;;11.10;81.20;;;;;;4821416;29;20055;-89
2023/05/16 04:09:08;;;;;;;7.25;2.97;;;11.20;81.20;;;;;;4828667;29;20548;-90
2023/05/16 04:11:37;;;;;;;7.70;3.40;;;11.30;81.00;;;;;;4836470;29;20099;-90
2023/05/16 04:14:04;;;;;;;8.60;3.10;;;11.30;80.80;;;;;;4831821;29;20058;-89
2023/05/16 04:16:31;;;;;;;6.63;3.00;;;11.30;80.80;;;;;;4835884;29;20050;-90
2023/05/16 04:18:58;;;;;;;6.07;2.60;;;11.30;80.80;;;;;;4837573;29;20057;-89
2023/05/16 04:21:26;;;;;;;8.43;3.45;;;11.40;80.90;;;;;;4833405;29;20421;-90
2023/05/16 04:23:53;;;;;;;9.02;3.92;;;11.40;81.10;;;;;;4839682;29;20416;-89
2023/05/16 04:26:21;;;;;;;10.40;3.40;;;11.50;80.80;;;;;;4820379;29;20081;-89
2023/05/16 04:28:48;;;;;;;9.93;3.50;;;11.50;80.60;;;;;;4828462;29;20451;-88
2023/05/16 04:31:15;;;;;;;8.95;3.70;;;11.60;80.40;;;;;;4829254;29;20062;-89
2023/05/16 04:33:42;;;;;;;10.85;3.88;;;11.80;80.10;;;;;;4830641;29;20569;-90
2023/05/16 04:36:09;;;;;;;11.02;4.35;;;11.90;79.80;;;;;;4839732;29;20502;-90
2023/05/16 04:38:36;;;;;;;10.23;3.93;;;12.00;79.30;;;;;;4831941;29;20079;-89
2023/05/16 04:41:04;;;;;;;10.02;3.50;;;12.00;79.10;;;;;;4836734;29;20050;-90
2023/05/16 04:43:31;;;;;;;8.40;2.90;;;12.00;78.90;;;;;;4838386;29;20516;-87
2023/05/16 04:45:58;;;;;;;8.25;2.90;;;12.00;78.90;;;;;;4830995;29;20050;-87
2023/05/16 04:48:25;;;;;;;7.47;2.90;;;12.10;79.10;;;;;;4831118;29;20053;-87
2023/05/16 04:50:52;;;;;;;8.43;3.20;;;12.10;78.80;;;;;;4834221;29;20110;-87
2023/05/16 04:53:19;;;;;;;8.10;3.17;;;12.20;78.80;;;;;;4833964;29;20485;-87
2023/05/16 04:55:46;;;;;;;9.63;3.40;;;12.20;79.00;;;;;;4831101;29;20046;-87
2023/05/16 04:58:13;;;;;;;6.97;2.60;;;12.20;79.10;;;;;;4834898;29;20133;-87
2023/05/16 05:00:40;;;;;;;7.35;3.20;;;12.30;79.30;;;;;;4834664;29;20073;-87
2023/05/16 05:03:07;;;;;;;6.37;1.97;;;12.40;79.00;;;;;;4828387;29;20046;-87
2023/05/16 05:05:35;;;;;;;5.65;2.25;;;12.50;79.00;;;;;;4835875;29;20050;-88
2023/05/16 05:08:03;;;;;;;6.43;2.30;;;12.60;78.30;;;;;;4820088;29;20062;-87
2023/05/16 05:10:30;;;;;;;5.70;2.08;;;12.70;78.30;;;;;;4822510;29;20109;-87
2023/05/16 05:12:57;;;;;;;7.22;1.95;;;13.00;78.30;;;;;;4797626;29;20383;-87
2023/05/16 05:15:24;;;;;;;5.90;2.33;;;13.10;77.10;;;;;;4816271;29;20054;-88
2023/05/16 05:17:52;;;;;;;5.50;1.75;;;13.30;76.70;;;;;;4821678;29;20046;-88
2023/05/16 05:20:23;;;;;;;5.30;2.00;;;13.40;76.70;;;;;;4818225;29;20054;-88
2023/05/16 05:22:50;;;;;;;5.97;2.20;;;13.50;76.20;;;;;;4819660;29;20501;-88
2023/05/16 05:25:17;;;;;;;7.03;2.22;;;13.50;75.50;;;;;;4813377;29;20061;-88
2023/05/16 05:27:44;;;;;;;5.83;2.27;;;13.60;75.40;;;;;;4817634;29;20426;-87
2023/05/16 05:30:11;;;;;;;8.98;2.03;;;13.60;76.00;;;;;;4819504;29;20050;-88
2023/05/16 05:32:40;;;;;;;7.15;2.13;;;13.60;75.60;;;;;;4819688;29;20038;-87
2023/05/16 05:35:08;;;;;;;7.15;2.30;;;13.70;75.10;;;;;;4814397;29;20567;-87
2023/05/16 05:37:37;;;;;;;5.93;2.10;;;13.70;75.80;;;;;;4816377;29;20061;-87
2023/05/16 05:40:05;;;;;;;5.93;2.00;;;13.80;75.20;;;;;;4812821;29;20496;-87
2023/05/16 05:42:32;;;;;;;6.10;2.40;;;13.80;74.90;;;;;;4819801;29;20137;-88
2023/05/16 05:44:59;;;;;;;5.82;2.60;;;13.90;75.40;;;;;;4817393;29;20549;-87
2023/05/16 05:47:26;;;;;;;6.65;2.33;;;14.00;74.40;;;;;;4814060;29;20391;-87
2023/05/16 05:49:54;;;;;;;5.55;2.42;;;14.00;74.70;;;;;;4814251;29;20054;-85
2023/05/16 05:52:21;;;;;;;5.37;2.10;;;14.20;74.90;;;;;;4823925;29;20045;-88
2023/05/16 05:54:48;;;;;;;6.28;2.20;;;14.30;74.30;;;;;;4810926;29;20057;-88
2023/05/16 05:57:15;;;;;;;8.07;2.03;;;14.50;74.10;;;;;;4835054;29;20572;-88
2023/05/16 05:59:42;;;;;;;5.90;2.20;;;14.50;73.20;;;;;;4805788;29;20489;-88
2023/05/16 06:02:09;;;;;;;6.20;1.90;;;14.60;73.10;;;;;;4812463;29;20454;-88
2023/05/16 06:04:41;;;;;;;6.07;2.27;;;14.80;73.00;;;;;;4806155;29;20517;-88
2023/05/16 06:07:08;;;;;;;4.03;1.80;;;14.90;73.00;;;;;;4821978;29;20114;-88
2023/05/16 06:09:35;;;;;;;6.40;2.17;;;15.00;72.70;;;;;;4818632;29;20068;-88
2023/05/16 06:12:03;;;;;;;5.35;1.98;;;15.20;71.40;;;;;;4819097;29;20564;-88
2023/05/16 06:14:30;;;;;;;5.95;2.30;;;15.30;71.00;;;;;;4822574;29;20038;-88
2023/05/16 06:16:57;;;;;;;6.13;2.03;;;15.40;70.40;;;;;;4816478;29;20073;-88
2023/05/16 06:19:24;;;;;;;4.53;1.98;;;15.50;70.30;;;;;;4800936;29;20563;-88
2023/05/16 06:21:51;;;;;;;7.05;2.08;;;15.50;71.40;;;;;;4825999;29;20050;-88
2023/05/16 06:24:18;;;;;;;7.60;2.13;;;15.60;70.70;;;;;;4798584;29;20076;-88
2023/05/16 06:26:48;;;;;;;5.85;2.08;;;15.80;70.20;;;;;;4812291;29;20050;-88
2023/05/16 06:29:16;;;;;;;4.97;2.10;;;16.00;69.90;;;;;;4824434;29;20447;-88
2023/05/16 06:31:45;;;;;;;5.65;2.58;;;16.10;69.80;;;;;;4801717;29;20056;-88
2023/05/16 06:34:12;;;;;;;6.93;2.88;;;16.20;70.00;;;;;;4811218;29;20046;-88
2023/05/16 06:36:39;;;;;;;6.70;2.35;;;16.30;70.00;;;;;;4816641;29;20401;-88
2023/05/16 06:39:06;;;;;;;8.82;3.00;;;16.50;68.70;;;;;;4813153;29;20065;-88
2023/05/16 06:41:33;;;;;;;13.10;3.50;;;16.60;67.90;;;;;;4816707;29;20042;-88
2023/05/16 06:44:03;;;;;;;11.73;3.72;;;16.60;68.00;;;;;;4795047;29;20125;-88
2023/05/16 06:46:31;;;;;;;8.57;3.63;;;16.80;68.10;;;;;;4812295;29;20042;-88
2023/05/16 06:48:58;;;;;;;10.43;4.05;;;16.80;68.00;;;;;;4813294;29;20042;-88
2023/05/16 06:51:25;;;;;;;9.93;4.78;;;16.80;67.70;;;;;;4802423;29;20050;-88
2023/05/16 06:53:52;;;;;;;12.53;5.23;;;17.00;68.90;;;;;;4806316;29;20529;-88
2023/05/16 06:56:20;;;;;;;13.70;5.88;;;17.00;67.20;;;;;;4815574;29;20051;-88
2023/05/16 06:58:48;;;;;;;13.40;5.90;;;17.10;65.50;;;;;;4817551;29;20053;-88
2023/05/16 07:01:15;;;;;;;10.02;5.13;;;17.00;64.70;;;;;;4819335;29;20457;-88
2023/05/16 07:03:43;;;;;;;14.13;5.90;;;17.00;65.10;;;;;;4812538;29;20057;-88
2023/05/16 07:06:10;;;;;;;11.37;5.17;;;17.00;65.50;;;;;;4825631;29;20057;-89
2023/05/16 07:08:37;;;;;;;12.52;5.20;;;17.10;65.20;;;;;;4829185;29;20073;-88
2023/05/16 07:11:04;;;;;;;11.30;5.03;;;17.20;65.20;;;;;;4839542;29;20041;-88
2023/05/16 07:13:31;;;;;;;11.05;5.72;;;17.20;64.60;;;;;;4838561;29;20071;-88
2023/05/16 07:16:02;;;;;;;9.77;4.80;;;17.30;63.70;;;;;;4841366;29;20058;-88
2023/05/16 07:18:29;;;;;;;12.53;5.27;;;17.30;62.60;;;;;;4835420;29;20042;-89
2023/05/16 07:20:57;;;;;;;10.48;5.45;;;17.40;61.10;;;;;;4835059;29;20073;-89
2023/05/16 07:23:24;;;;;;;10.57;4.93;;;17.40;61.00;;;;;;4834338;29;20064;-88
2023/05/16 07:25:52;;;;;;;10.43;4.90;;;17.50;60.70;;;;;;4827691;29;20132;-89
2023/05/16 07:28:20;;;;;;;8.57;4.70;;;17.60;60.80;;;;;;4839378;29;20102;-88
2023/05/16 07:30:47;;;;;;;8.67;4.60;;;17.50;60.00;;;;;;4837261;29;20050;-88
2023/05/16 07:33:15;;;;;;;8.55;4.70;;;17.60;60.20;;;;;;4837908;29;20053;-88
2023/05/16 07:35:42;;;;;;;10.73;5.03;;;17.70;61.60;;;;;;4836489;29;20047;-88
2023/05/16 07:38:10;;;;;;;8.73;4.85;;;17.80;61.00;;;;;;4821262;29;20057;-89
2023/05/16 07:40:37;;;;;;;10.27;4.63;;;17.80;61.20;;;;;;4826248;29;20045;-89
2023/05/16 07:43:04;;;;;;;8.63;4.77;;;18.00;61.70;;;;;;4842093;29;20504;-88
2023/05/16 07:45:31;;;;;;;9.65;4.50;;;18.00;60.30;;;;;;4825244;29;20113;-88
2023/05/16 07:47:59;;;;;;;8.63;4.43;;;17.90;61.00;;;;;;4841820;29;20053;-88
2023/05/16 07:50:26;;;;;;;7.72;4.38;;;17.90;60.80;;;;;;4831055;29;20076;-88
2023/05/16 07:52:53;;;;;;;8.52;4.68;;;17.80;59.30;;;;;;4838370;29;20140;-89
2023/05/16 07:55:21;;;;;;;7.17;4.40;;;17.90;60.40;;;;;;4827428;29;20041;-88
2023/05/16 07:57:49;;;;;;;8.88;4.30;;;18.00;61.00;;;;;;4831102;29;20066;-89
2023/05/16 08:00:17;;;;;;;9.07;4.90;;;18.20;60.60;;;;;;4836271;29;20053;-89
2023/05/16 08:02:44;;;;;;;8.95;4.63;;;18.30;59.30;;;;;;4836741;29;20419;-89
2023/05/16 08:05:11;;;;;;;11.13;4.82;;;18.30;59.30;;;;;;4811214;29;20057;-89
2023/05/16 08:07:38;;;;;;;8.70;5.00;;;18.30;59.40;;;;;;4832420;29;20128;-88
2023/05/16 08:10:06;;;;;;;8.30;4.35;;;18.40;59.00;;;;;;4826979;29;20061;-88
2023/05/16 08:12:39;;;;;;;8.93;5.00;;;18.50;58.20;;;;;;4834020;29;20502;-89
2023/05/16 08:15:07;;;;;;;9.15;4.72;;;18.50;57.50;;;;;;4821475;29;20081;-89
2023/05/16 08:17:34;;;;;;;8.90;4.75;;;18.60;59.60;;;;;;4831608;29;20049;-88
2023/05/16 08:20:02;;;;;;;8.27;4.60;;;18.50;58.00;;;;;;4833505;29;20081;-89
2023/05/16 08:22:32;;;;;;;8.50;4.38;;;18.30;58.10;;;;;;4824470;29;20061;-89
2023/05/16 08:24:59;;;;;;;8.48;4.70;;;18.50;58.10;;;;;;4806527;29;20140;-89
2023/05/16 08:27:27;;;;;;;8.77;4.65;;;18.60;60.40;;;;;;4835954;29;20053;-89
2023/05/16 08:29:55;;;;;;;8.93;4.80;;;18.60;57.70;;;;;;4826163;29;20081;-88
2023/05/16 08:32:22;;;;;;;8.30;4.70;;;18.60;57.60;;;;;;4812606;29;20046;-89
2023/05/16 08:34:49;;;;;;;9.20;4.43;;;18.60;58.50;;;;;;4813422;29;20055;-89
2023/05/16 08:37:16;;;;;;;9.02;4.70;;;18.70;58.50;;;;;;4830800;29;20497;-89
2023/05/16 08:39:43;;;;;;;8.73;4.97;;;18.80;57.60;;;;;;4830580;29;20074;-88
2023/05/16 08:42:11;;;;;;;9.60;5.03;;;18.90;57.80;;;;;;4829093;29;20078;-88
2023/05/16 08:44:38;;;;;;;8.13;4.90;;;18.80;58.10;;;;;;4829418;29;20050;-89
2023/05/16 08:47:17;;;;;;;9.80;4.97;;;18.80;56.60;;;;;;4830417;29;20050;-89
2023/05/16 08:49:47;;;;;;;10.77;5.50;;;18.80;57.40;;;;;;4836082;29;20053;-89
2023/05/16 08:52:19;;;;;;;10.65;5.40;;;18.90;57.70;;;;;;4833483;29;20046;-89
2023/05/16 08:54:49;;;;;;;9.50;5.25;;;18.90;58.00;;;;;;4839077;29;20066;-89
2023/05/16 08:57:36;;;;;;;8.53;4.70;;;19.00;58.60;;;;;;4829404;29;20124;-89
2023/05/16 09:00:11;;;;;;;9.05;4.72;;;19.10;57.70;;;;;;4815754;29;20045;-89
2023/05/16 09:02:41;;;;;;;9.57;5.05;;;19.10;58.30;;;;;;4828022;29;20501;-88
2023/05/16 09:05:11;;;;;;;9.75;5.03;;;19.10;57.00;;;;;;4834422;29;20524;-89
2023/05/16 09:07:39;;;;;;;8.50;5.20;;;19.20;59.30;;;;;;4829727;29;20046;-89
2023/05/16 09:10:09;;;;;;;10.50;5.57;;;19.40;59.10;;;;;;4821074;29;20061;-89
2023/05/16 09:12:37;;;;;;;9.50;5.45;;;19.50;57.80;;;;;;4825094;29;20046;-89
2023/05/16 09:15:06;;;;;;;10.23;5.40;;;19.50;57.20;;;;;;4835907;29;20045;-89
2023/05/16 09:17:38;;;;;;;9.95;5.70;;;19.50;56.90;;;;;;4829785;29;20046;-89
2023/05/16 09:20:19;;;;;;;9.70;5.30;;;19.50;57.80;;;;;;4830056;29;20145;-89
2023/05/16 09:22:57;;;;;;;9.50;5.43;;;19.70;56.90;;;;;;4835367;29;20056;-89
2023/05/16 09:25:29;;;;;;;10.05;4.90;;;19.70;58.30;;;;;;4839681;29;20516;-89
2023/05/16 09:28:00;;;;;;;9.65;5.40;;;19.90;58.40;;;;;;4826501;29;20058;-89
2023/05/16 09:30:32;;;;;;;9.48;5.65;;;19.90;57.10;;;;;;4838281;29;20052;-89
2023/05/16 09:33:00;;;;;;;9.75;5.72;;;19.80;58.90;;;;;;4824556;29;20045;-89
2023/05/16 09:35:28;;;;;;;8.93;5.20;;;19.80;55.50;;;;;;4829498;29;20464;-89
2023/05/16 09:37:58;;;;;;;9.10;5.60;;;19.60;57.10;;;;;;4832127;29;20100;-89
2023/05/16 09:40:25;;;;;;;9.98;5.38;;;19.60;58.10;;;;;;4832754;29;20493;-89
2023/05/16 09:43:07;;;;;;;8.85;4.90;;;19.50;57.70;;;;;;4830264;29;20557;-89
2023/05/16 09:45:35;;;;;;;10.15;5.13;;;19.50;57.40;;;;;;4833028;29;20050;-88
2023/05/16 09:48:07;;;;;;;11.83;5.90;;;19.60;57.20;;;;;;4819155;29;20057;-89
2023/05/16 09:50:36;;;;;;;10.77;5.22;;;19.70;57.60;;;;;;4830234;29;20535;-89
2023/05/16 09:53:04;;;;;;;9.75;5.63;;;19.70;56.70;;;;;;4831906;29;20046;-89
2023/05/16 09:55:32;;;;;;;10.00;5.75;;;19.80;57.80;;;;;;4828416;29;20046;-90
2023/05/16 09:57:59;;;;;;;8.82;5.40;;;19.80;57.60;;;;;;4834276;29;20138;-89
2023/05/16 10:00:31;;;;;;;7.73;4.60;;;19.70;59.00;;;;;;4837325;29;20103;-89
2023/05/16 10:02:59;;;;;;;8.02;4.50;;;19.60;56.30;;;;;;4826928;29;20142;-89
2023/05/16 10:05:31;;;;;;;9.77;6.10;;;19.60;58.20;;;;;;4828136;29;20054;-89
2023/05/16 10:08:01;;;;;;;10.43;5.28;;;19.40;57.60;;;;;;4820156;29;20535;-89
2023/05/16 10:10:29;;;;;;;9.13;5.60;;;19.50;59.40;;;;;;4822726;29;20056;-89
2023/05/16 10:13:00;;;;;;;10.00;6.00;;;19.70;59.40;;;;;;4794920;29;20077;-89
2023/05/16 10:15:28;;;;;;;9.85;5.55;;;19.80;57.00;;;;;;4823104;29;20046;-89
2023/05/16 10:18:00;;;;;;;11.77;6.18;;;19.80;57.40;;;;;;4806026;29;20050;-89
2023/05/16 10:20:28;;;;;;;8.15;5.10;;;19.80;57.70;;;;;;4816768;29;20053;-89
2023/05/16 10:22:56;;;;;;;9.65;4.80;;;19.80;56.90;;;;;;4803860;29;20071;-89
2023/05/16 10:25:35;;;;;;;8.83;5.03;;;19.80;55.90;;;;;;4816145;29;20065;-89
2023/05/16 10:28:05;;;;;;;8.27;4.70;;;19.70;55.10;;;;;;4815300;29;20054;-89
2023/05/16 10:30:34;;;;;;;9.65;5.50;;;19.70;54.80;;;;;;4818898;29;20045;-89
2023/05/16 10:33:03;;;;;;;9.35;5.50;;;19.60;55.00;;;;;;4820265;29;20061;-88
2023/05/16 10:35:31;;;;;;;8.93;5.28;;;19.60;58.60;;;;;;4812965;29;20047;-89
2023/05/16 10:38:00;;;;;;;11.57;5.50;;;19.50;56.00;;;;;;4823156;29;20100;-89
2023/05/16 10:40:29;;;;;;;10.25;5.50;;;19.50;57.60;;;;;;4817910;29;20054;-89
2023/05/16 10:43:01;;;;;;;8.88;5.05;;;19.50;57.00;;;;;;4812793;29;20059;-89
2023/05/16 10:45:30;;;;;;;9.75;4.93;;;19.50;55.60;;;;;;4816340;29;20050;-89
2023/05/16 10:47:59;;;;;;;8.98;5.03;;;19.40;58.30;;;;;;4808142;29;20046;-89
2023/05/16 10:50:41;;;;;;;8.40;4.50;;;19.40;55.30;;;;;;4820290;29;20054;-88
2023/05/16 10:53:19;;;;;;;7.50;4.60;;;19.40;55.60;;;;;;4821300;29;20509;-88
2023/05/16 10:56:04;;;;;;;9.75;4.65;;;19.40;55.80;;;;;;4819000;29;20046;-89
2023/05/16 10:58:37;;;;;;;11.05;4.93;;;19.40;55.90;;;;;;4813730;29;20043;-89
2023/05/16 11:01:24;;;;;;;9.32;4.65;;;19.40;55.90;;;;;;4820022;29;20132;-89
2023/05/16 11:04:11;;;;;;;8.87;4.87;;;19.40;56.60;;;;;;4821064;29;20054;-89
2023/05/16 11:06:41;;;;;;;9.88;5.05;;;19.40;57.20;;;;;;4801572;29;20058;-89
2023/05/16 11:09:14;;;;;;;9.20;5.05;;;19.30;57.00;;;;;;4815898;29;20054;-89
2023/05/16 11:11:51;;;;;;;8.55;5.05;;;19.30;56.50;;;;;;4804355;29;20050;-88
2023/05/16 11:14:25;;;;;;;10.13;5.68;;;19.30;57.10;;;;;;4813543;29;20053;-89
2023/05/16 11:17:05;;;;;;;10.53;5.10;;;19.10;56.90;;;;;;4809768;29;20478;-88
2023/05/16 11:19:47;;;;;;;10.25;5.88;;;19.20;58.80;;;;;;4812714;29;20047;-89
2023/05/16 11:22:39;;;;;;;10.82;6.28;;;19.30;58.60;;;;;;4822598;29;20062;-89
2023/05/16 11:25:09;;;;;;;9.95;5.30;;;19.20;57.70;;;;;;4822316;29;20073;-89
2023/05/16 11:27:44;;;;;;;9.27;5.95;;;19.20;57.90;;;;;;4817692;29;20443;-89
2023/05/16 11:30:14;;;;;;;10.30;5.40;;;19.10;58.60;;;;;;4817769;29;20051;-89
2023/05/16 11:32:44;;;;;;;11.40;5.63;;;19.10;57.80;;;;;;4812033;29;20052;-89
2023/05/16 11:35:14;;;;;;;11.05;5.65;;;18.90;57.70;;;;;;4802042;29;20038;-89
2023/05/16 11:37:43;;;;;;;11.43;6.18;;;18.90;59.30;;;;;;4800335;29;20580;-89
2023/05/16 11:40:12;;;;;;;9.18;5.95;;;18.90;59.20;;;;;;4816718;29;20539;-89
2023/05/16 11:42:43;;;;;;;8.73;5.50;;;18.80;59.10;;;;;;4817376;29;20069;-88
2023/05/16 11:45:13;;;;;;;9.15;5.40;;;18.80;58.60;;;;;;4802663;29;20515;-89
2023/05/16 11:47:43;;;;;;;9.52;5.13;;;18.80;59.60;;;;;;4809828;29;20486;-89
2023/05/16 11:50:12;;;;;;;10.32;5.00;;;18.80;58.90;;;;;;4817900;29;20046;-89
2023/05/16 11:52:43;;;;;;;10.75;5.22;;;18.80;58.30;;;;;;4815415;29;20054;-89
2023/05/16 11:55:11;;;;;;;9.97;5.23;;;18.70;58.60;;;;;;4814064;29;20054;-89
2023/05/16 11:57:43;;;;;;;9.35;5.25;;;18.60;58.60;;;;;;4812543;29;20058;-89
2023/05/16 12:00:15;;;;;;;9.07;5.55;;;18.50;59.50;;;;;;4815681;29;20049;-89
2023/05/16 12:02:49;;;;;;;10.43;5.82;;;18.50;59.60;;;;;;4812083;29;20129;-89
2023/05/16 12:05:19;;;;;;;11.90;6.15;;;18.40;60.00;;;;;;4802867;29;20046;-89
2023/05/16 12:07:47;;;;;;;15.03;6.57;;;18.40;60.50;;;;;;4831534;29;20397;-89
2023/05/16 12:10:15;;;;;;;13.18;6.15;;;18.40;61.30;;;;;;4846165;29;20049;-89
2023/05/16 12:12:48;;;;;;;11.73;6.15;;;18.40;61.20;;;;;;4835829;29;20078;-89
2023/05/16 12:15:16;;;;;;;10.43;6.18;;;18.40;61.90;;;;;;4835530;29;20535;-88
2023/05/16 12:17:44;;;;;;;10.95;6.75;;;18.40;62.90;;;;;;4819902;29;20924;-88
2023/05/16 12:20:13;;;;;;;14.63;5.93;;;18.40;63.50;;;;;;4833574;29;20041;-88
2023/05/16 12:22:41;;;;;;;10.13;5.03;;;18.40;63.10;;;;;;4833878;29;20062;-89
2023/05/16 12:25:26;;;;;;;8.35;5.15;;;18.40;61.70;;;;;;4840653;29;20046;-89
2023/05/16 12:27:56;;;;;;;10.23;5.30;;;18.30;61.40;;;;;;4832839;29;20101;-89
2023/05/16 12:30:24;;;;;;;8.50;4.85;;;18.20;61.10;;;;;;4838478;29;20060;-89
2023/05/16 12:32:54;;;;;;;9.57;4.80;;;18.10;62.10;;;;;;4845240;29;20102;-89
2023/05/16 12:35:23;;;;;;;12.38;4.82;;;18.10;62.50;;;;;;4824962;29;20489;-89
2023/05/16 12:37:52;;;;;;;10.95;5.45;;;18.10;62.70;;;;;;4833823;29;20050;-89
2023/05/16 12:40:19;;;;;;;9.85;5.97;;;18.00;62.70;;;;;;4823811;29;20405;-89
2023/05/16 12:42:53;;;;;;;9.63;5.40;;;18.10;63.40;;;;;;4834392;29;20133;-90
2023/05/16 12:45:22;;;;;;;11.27;5.80;;;18.10;64.90;;;;;;4836340;29;20500;-90
2023/05/16 12:47:49;;;;;;;10.98;6.72;;;18.10;64.30;;;;;;4821488;29;20089;-90
2023/05/16 12:50:17;;;;;;;11.23;6.05;;;18.10;64.50;;;;;;4817645;29;20102;-90
2023/05/16 12:52:57;;;;;;;10.25;6.13;;;18.10;64.10;;;;;;4840891;29;20069;-90
2023/05/16 12:55:25;;;;;;;10.30;6.80;;;18.10;64.30;;;;;;4840004;29;20054;-90
2023/05/16 12:57:56;;;;;;;9.67;5.30;;;18.20;65.20;;;;;;4833796;29;20115;-90